sensor_id;sensor_type;location;lat;lon;timestamp;P1;durP1;ratioP1;P2;durP2;ratioP2
47309;SDS011;33046;52.270;6.832;2023-04-09T00:01:33;31.08;;;25.10;;
47309;SDS011;33046;52.270;6.832;2023-04-09T00:03:40;30.80;;;25.25;;
47309;SDS011;33046;52.270;6.832;2023-04-09T00:05:46;33.05;;;26.48;;
47309;SDS011;33046;52.270;6.832;2023-04-09T00:07:53;30.23;;;24.65;;
47309;SDS011;33046;52.270;6.832;2023-04-09T00:10:00;32.13;;;24.38;;
47309;SDS011;33046;52.270;6.832;2023-04-09T00:12:07;30.65;;;26.52;;
47309;SDS011;33046;52.270;6.832;2023-04-09T00:14:13;28.67;;;24.85;;
47309;SDS011;33046;52.270;6.832;2023-04-09T00:16:22;32.67;;;26.40;;
47309;SDS011;33046;52.270;6.832;2023-04-09T00:18:28;29.70;;;25.13;;
47309;SDS011;33046;52.270;6.832;2023-04-09T00:20:35;30.85;;;25.02;;
47309;SDS011;33046;52.270;6.832;2023-04-09T00:22:42;28.15;;;24.13;;
47309;SDS011;33046;52.270;6.832;2023-04-09T00:24:49;27.60;;;24.63;;
47309;SDS011;33046;52.270;6.832;2023-04-09T00:26:55;31.60;;;24.95;;
47309;SDS011;33046;52.270;6.832;2023-04-09T00:29:02;27.13;;;24.10;;
47309;SDS011;33046;52.270;6.832;2023-04-09T00:31:09;28.20;;;23.95;;
47309;SDS011;33046;52.270;6.832;2023-04-09T00:33:17;27.83;;;23.92;;
47309;SDS011;33046;52.270;6.832;2023-04-09T00:35:24;29.15;;;24.25;;
47309;SDS011;33046;52.270;6.832;2023-04-09T00:37:31;30.08;;;24.92;;
47309;SDS011;33046;52.270;6.832;2023-04-09T00:39:37;29.95;;;25.02;;
47309;SDS011;33046;52.270;6.832;2023-04-09T00:41:44;29.75;;;22.95;;
47309;SDS011;33046;52.270;6.832;2023-04-09T00:43:51;29.95;;;23.48;;
47309;SDS011;33046;52.270;6.832;2023-04-09T00:46:00;25.83;;;22.65;;
47309;SDS011;33046;52.270;6.832;2023-04-09T00:48:08;29.35;;;23.60;;
47309;SDS011;33046;52.270;6.832;2023-04-09T00:50:16;30.13;;;24.52;;
47309;SDS011;33046;52.270;6.832;2023-04-09T00:52:23;29.42;;;24.55;;
47309;SDS011;33046;52.270;6.832;2023-04-09T00:54:30;27.15;;;23.65;;
47309;SDS011;33046;52.270;6.832;2023-04-09T00:56:37;29.27;;;24.02;;
47309;SDS011;33046;52.270;6.832;2023-04-09T00:58:44;29.33;;;24.33;;
47309;SDS011;33046;52.270;6.832;2023-04-09T01:00:51;26.92;;;23.98;;
47309;SDS011;33046;52.270;6.832;2023-04-09T01:02:58;28.90;;;24.17;;
47309;SDS011;33046;52.270;6.832;2023-04-09T01:05:05;27.52;;;24.20;;
47309;SDS011;33046;52.270;6.832;2023-04-09T01:07:15;28.38;;;22.77;;
47309;SDS011;33046;52.270;6.832;2023-04-09T01:09:27;31.20;;;24.95;;
47309;SDS011;33046;52.270;6.832;2023-04-09T01:11:42;29.02;;;25.33;;
47309;SDS011;33046;52.270;6.832;2023-04-09T01:13:57;28.58;;;25.50;;
47309;SDS011;33046;52.270;6.832;2023-04-09T01:16:17;28.20;;;24.85;;
47309;SDS011;33046;52.270;6.832;2023-04-09T01:18:28;27.33;;;22.45;;
47309;SDS011;33046;52.270;6.832;2023-04-09T01:20:38;29.13;;;23.13;;
47309;SDS011;33046;52.270;6.832;2023-04-09T01:22:54;30.30;;;25.02;;
47309;SDS011;33046;52.270;6.832;2023-04-09T01:25:08;27.75;;;22.77;;
47309;SDS011;33046;52.270;6.832;2023-04-09T01:27:25;28.15;;;24.27;;
47309;SDS011;33046;52.270;6.832;2023-04-09T01:29:44;28.15;;;24.17;;
47309;SDS011;33046;52.270;6.832;2023-04-09T01:31:52;30.17;;;25.00;;
47309;SDS011;33046;52.270;6.832;2023-04-09T01:34:00;26.42;;;23.08;;
47309;SDS011;33046;52.270;6.832;2023-04-09T01:36:08;28.80;;;24.08;;
47309;SDS011;33046;52.270;6.832;2023-04-09T01:38:16;28.15;;;24.40;;
47309;SDS011;33046;52.270;6.832;2023-04-09T01:40:26;25.75;;;22.80;;
47309;SDS011;33046;52.270;6.832;2023-04-09T01:42:33;25.65;;;22.15;;
47309;SDS011;33046;52.270;6.832;2023-04-09T01:44:43;25.08;;;22.17;;
47309;SDS011;33046;52.270;6.832;2023-04-09T01:46:51;26.30;;;23.00;;
47309;SDS011;33046;52.270;6.832;2023-04-09T01:49:00;26.92;;;23.15;;
47309;SDS011;33046;52.270;6.832;2023-04-09T01:51:07;29.35;;;22.73;;
47309;SDS011;33046;52.270;6.832;2023-04-09T01:53:14;26.08;;;21.88;;
47309;SDS011;33046;52.270;6.832;2023-04-09T01:55:21;25.55;;;22.10;;
47309;SDS011;33046;52.270;6.832;2023-04-09T01:57:29;24.80;;;21.50;;
47309;SDS011;33046;52.270;6.832;2023-04-09T01:59:36;31.05;;;25.00;;
47309;SDS011;33046;52.270;6.832;2023-04-09T02:01:45;26.35;;;22.92;;
47309;SDS011;33046;52.270;6.832;2023-04-09T02:03:55;25.85;;;23.02;;
47309;SDS011;33046;52.270;6.832;2023-04-09T02:06:06;25.52;;;22.80;;
47309;SDS011;33046;52.270;6.832;2023-04-09T02:08:19;27.02;;;23.52;;
47309;SDS011;33046;52.270;6.832;2023-04-09T02:10:26;26.00;;;21.88;;
47309;SDS011;33046;52.270;6.832;2023-04-09T02:12:37;25.40;;;22.55;;
47309;SDS011;33046;52.270;6.832;2023-04-09T02:14:45;29.25;;;22.73;;
47309;SDS011;33046;52.270;6.832;2023-04-09T02:16:57;25.73;;;22.50;;
47309;SDS011;33046;52.270;6.832;2023-04-09T02:19:04;27.98;;;22.75;;
47309;SDS011;33046;52.270;6.832;2023-04-09T02:21:11;23.90;;;21.25;;
47309;SDS011;33046;52.270;6.832;2023-04-09T02:23:18;25.05;;;21.58;;
47309;SDS011;33046;52.270;6.832;2023-04-09T02:25:25;24.10;;;21.42;;
47309;SDS011;33046;52.270;6.832;2023-04-09T02:27:32;25.75;;;22.85;;
47309;SDS011;33046;52.270;6.832;2023-04-09T02:29:40;25.85;;;22.02;;
47309;SDS011;33046;52.270;6.832;2023-04-09T02:31:47;24.10;;;21.15;;
47309;SDS011;33046;52.270;6.832;2023-04-09T02:33:55;24.40;;;21.10;;
47309;SDS011;33046;52.270;6.832;2023-04-09T02:36:02;28.13;;;23.15;;
47309;SDS011;33046;52.270;6.832;2023-04-09T02:38:09;25.38;;;22.65;;
47309;SDS011;33046;52.270;6.832;2023-04-09T02:40:16;26.98;;;22.08;;
47309;SDS011;33046;52.270;6.832;2023-04-09T02:42:23;26.55;;;21.40;;
47309;SDS011;33046;52.270;6.832;2023-04-09T02:44:30;26.60;;;22.45;;
47309;SDS011;33046;52.270;6.832;2023-04-09T02:46:37;24.75;;;20.73;;
47309;SDS011;33046;52.270;6.832;2023-04-09T02:48:44;23.20;;;20.52;;
47309;SDS011;33046;52.270;6.832;2023-04-09T02:50:53;24.58;;;20.60;;
47309;SDS011;33046;52.270;6.832;2023-04-09T02:52:59;26.88;;;22.45;;
47309;SDS011;33046;52.270;6.832;2023-04-09T02:55:06;24.13;;;20.73;;
47309;SDS011;33046;52.270;6.832;2023-04-09T02:57:13;30.73;;;22.33;;
47309;SDS011;33046;52.270;6.832;2023-04-09T02:59:20;26.45;;;21.15;;
47309;SDS011;33046;52.270;6.832;2023-04-09T03:01:27;24.50;;;20.60;;
47309;SDS011;33046;52.270;6.832;2023-04-09T03:03:34;25.35;;;21.23;;
47309;SDS011;33046;52.270;6.832;2023-04-09T03:05:41;25.08;;;21.73;;
47309;SDS011;33046;52.270;6.832;2023-04-09T03:07:49;24.33;;;21.48;;
47309;SDS011;33046;52.270;6.832;2023-04-09T03:09:56;24.27;;;21.17;;
47309;SDS011;33046;52.270;6.832;2023-04-09T03:12:03;27.45;;;21.73;;
47309;SDS011;33046;52.270;6.832;2023-04-09T03:14:10;25.77;;;20.30;;
47309;SDS011;33046;52.270;6.832;2023-04-09T03:16:16;25.92;;;22.85;;
47309;SDS011;33046;52.270;6.832;2023-04-09T03:18:23;27.30;;;22.25;;
47309;SDS011;33046;52.270;6.832;2023-04-09T03:20:30;24.80;;;20.90;;
47309;SDS011;33046;52.270;6.832;2023-04-09T03:22:37;24.25;;;21.58;;
47309;SDS011;33046;52.270;6.832;2023-04-09T03:25:00;26.55;;;21.17;;
47309;SDS011;33046;52.270;6.832;2023-04-09T03:27:07;26.80;;;22.58;;
47309;SDS011;33046;52.270;6.832;2023-04-09T03:29:14;28.00;;;22.08;;
47309;SDS011;33046;52.270;6.832;2023-04-09T03:31:20;27.73;;;21.70;;
47309;SDS011;33046;52.270;6.832;2023-04-09T03:33:27;26.55;;;22.35;;
47309;SDS011;33046;52.270;6.832;2023-04-09T03:35:36;27.77;;;22.67;;
47309;SDS011;33046;52.270;6.832;2023-04-09T03:37:43;28.35;;;21.75;;
47309;SDS011;33046;52.270;6.832;2023-04-09T03:39:55;24.13;;;21.17;;
47309;SDS011;33046;52.270;6.832;2023-04-09T03:42:07;26.33;;;22.10;;
47309;SDS011;33046;52.270;6.832;2023-04-09T03:44:22;28.00;;;22.58;;
47309;SDS011;33046;52.270;6.832;2023-04-09T03:46:58;29.38;;;22.58;;
47309;SDS011;33046;52.270;6.832;2023-04-09T03:49:06;28.50;;;23.17;;
47309;SDS011;33046;52.270;6.832;2023-04-09T03:51:20;27.80;;;22.52;;
47309;SDS011;33046;52.270;6.832;2023-04-09T03:53:32;29.20;;;22.85;;
47309;SDS011;33046;52.270;6.832;2023-04-09T03:55:43;27.90;;;21.88;;
47309;SDS011;33046;52.270;6.832;2023-04-09T03:57:59;27.52;;;22.50;;
47309;SDS011;33046;52.270;6.832;2023-04-09T04:00:10;28.08;;;22.40;;
47309;SDS011;33046;52.270;6.832;2023-04-09T04:02:28;25.38;;;21.60;;
47309;SDS011;33046;52.270;6.832;2023-04-09T04:04:40;27.35;;;22.05;;
47309;SDS011;33046;52.270;6.832;2023-04-09T04:06:49;27.83;;;21.88;;
47309;SDS011;33046;52.270;6.832;2023-04-09T04:09:08;25.95;;;21.85;;
47309;SDS011;33046;52.270;6.832;2023-04-09T04:11:23;24.23;;;21.15;;
47309;SDS011;33046;52.270;6.832;2023-04-09T04:13:34;28.65;;;21.90;;
47309;SDS011;33046;52.270;6.832;2023-04-09T04:15:44;27.77;;;23.00;;
47309;SDS011;33046;52.270;6.832;2023-04-09T04:17:52;26.50;;;21.40;;
47309;SDS011;33046;52.270;6.832;2023-04-09T04:20:12;25.25;;;21.30;;
47309;SDS011;33046;52.270;6.832;2023-04-09T04:22:32;25.45;;;20.23;;
47309;SDS011;33046;52.270;6.832;2023-04-09T04:24:39;25.75;;;19.55;;
47309;SDS011;33046;52.270;6.832;2023-04-09T04:26:46;26.08;;;21.00;;
47309;SDS011;33046;52.270;6.832;2023-04-09T04:28:57;30.88;;;20.13;;
47309;SDS011;33046;52.270;6.832;2023-04-09T04:31:24;24.58;;;20.60;;
47309;SDS011;33046;52.270;6.832;2023-04-09T04:33:33;25.77;;;20.30;;
47309;SDS011;33046;52.270;6.832;2023-04-09T04:35:42;24.58;;;20.25;;
47309;SDS011;33046;52.270;6.832;2023-04-09T04:38:04;25.77;;;20.77;;
47309;SDS011;33046;52.270;6.832;2023-04-09T04:40:15;28.00;;;21.45;;
47309;SDS011;33046;52.270;6.832;2023-04-09T04:42:23;24.38;;;20.30;;
47309;SDS011;33046;52.270;6.832;2023-04-09T04:44:31;23.92;;;19.05;;
47309;SDS011;33046;52.270;6.832;2023-04-09T04:46:51;28.52;;;20.67;;
47309;SDS011;33046;52.270;6.832;2023-04-09T04:48:58;24.45;;;20.08;;
47309;SDS011;33046;52.270;6.832;2023-04-09T04:51:07;22.98;;;18.08;;
47309;SDS011;33046;52.270;6.832;2023-04-09T04:53:20;23.80;;;19.20;;
47309;SDS011;33046;52.270;6.832;2023-04-09T04:55:29;23.60;;;18.83;;
47309;SDS011;33046;52.270;6.832;2023-04-09T04:57:38;24.52;;;20.75;;
47309;SDS011;33046;52.270;6.832;2023-04-09T04:59:47;25.55;;;19.02;;
47309;SDS011;33046;52.270;6.832;2023-04-09T05:01:56;26.15;;;19.92;;
47309;SDS011;33046;52.270;6.832;2023-04-09T05:04:04;24.95;;;19.83;;
47309;SDS011;33046;52.270;6.832;2023-04-09T05:06:12;23.05;;;19.10;;
47309;SDS011;33046;52.270;6.832;2023-04-09T05:08:22;26.10;;;18.58;;
47309;SDS011;33046;52.270;6.832;2023-04-09T05:10:31;23.25;;;17.88;;
47309;SDS011;33046;52.270;6.832;2023-04-09T05:12:38;26.23;;;21.17;;
47309;SDS011;33046;52.270;6.832;2023-04-09T05:14:48;26.20;;;19.73;;
47309;SDS011;33046;52.270;6.832;2023-04-09T05:16:54;22.27;;;18.48;;
47309;SDS011;33046;52.270;6.832;2023-04-09T05:19:06;27.42;;;21.20;;
47309;SDS011;33046;52.270;6.832;2023-04-09T05:21:13;25.73;;;20.33;;
47309;SDS011;33046;52.270;6.832;2023-04-09T05:23:23;22.52;;;17.88;;
47309;SDS011;33046;52.270;6.832;2023-04-09T05:25:29;21.17;;;16.70;;
47309;SDS011;33046;52.270;6.832;2023-04-09T05:27:38;22.52;;;18.80;;
47309;SDS011;33046;52.270;6.832;2023-04-09T05:29:50;22.52;;;17.98;;
47309;SDS011;33046;52.270;6.832;2023-04-09T05:31:57;26.48;;;20.67;;
47309;SDS011;33046;52.270;6.832;2023-04-09T05:34:14;19.90;;;16.30;;
47309;SDS011;33046;52.270;6.832;2023-04-09T05:36:26;21.10;;;15.77;;
47309;SDS011;33046;52.270;6.832;2023-04-09T05:38:32;19.83;;;15.73;;
47309;SDS011;33046;52.270;6.832;2023-04-09T05:40:39;21.63;;;16.25;;
47309;SDS011;33046;52.270;6.832;2023-04-09T05:42:50;22.73;;;18.55;;
47309;SDS011;33046;52.270;6.832;2023-04-09T05:45:17;20.90;;;16.50;;
47309;SDS011;33046;52.270;6.832;2023-04-09T05:47:29;23.17;;;17.60;;
47309;SDS011;33046;52.270;6.832;2023-04-09T05:49:56;23.08;;;16.70;;
47309;SDS011;33046;52.270;6.832;2023-04-09T05:52:03;19.15;;;15.45;;
47309;SDS011;33046;52.270;6.832;2023-04-09T05:54:11;20.83;;;17.00;;
47309;SDS011;33046;52.270;6.832;2023-04-09T05:56:18;17.52;;;14.02;;
47309;SDS011;33046;52.270;6.832;2023-04-09T05:58:34;22.92;;;17.75;;
47309;SDS011;33046;52.270;6.832;2023-04-09T06:00:43;24.80;;;18.55;;
47309;SDS011;33046;52.270;6.832;2023-04-09T06:02:49;24.27;;;20.50;;
47309;SDS011;33046;52.270;6.832;2023-04-09T06:04:56;27.08;;;21.52;;
47309;SDS011;33046;52.270;6.832;2023-04-09T06:07:03;24.20;;;20.70;;
47309;SDS011;33046;52.270;6.832;2023-04-09T06:09:10;28.92;;;23.13;;
47309;SDS011;33046;52.270;6.832;2023-04-09T06:11:16;29.83;;;21.70;;
47309;SDS011;33046;52.270;6.832;2023-04-09T06:13:23;31.45;;;23.45;;
47309;SDS011;33046;52.270;6.832;2023-04-09T06:15:30;31.85;;;24.80;;
47309;SDS011;33046;52.270;6.832;2023-04-09T06:17:38;32.85;;;23.60;;
47309;SDS011;33046;52.270;6.832;2023-04-09T06:19:45;29.10;;;22.10;;
47309;SDS011;33046;52.270;6.832;2023-04-09T06:21:52;33.33;;;24.13;;
47309;SDS011;33046;52.270;6.832;2023-04-09T06:23:59;31.80;;;23.60;;
47309;SDS011;33046;52.270;6.832;2023-04-09T06:26:05;34.08;;;25.13;;
47309;SDS011;33046;52.270;6.832;2023-04-09T06:28:12;33.33;;;26.65;;
47309;SDS011;33046;52.270;6.832;2023-04-09T06:30:19;31.85;;;25.67;;
47309;SDS011;33046;52.270;6.832;2023-04-09T06:32:26;38.25;;;26.92;;
47309;SDS011;33046;52.270;6.832;2023-04-09T06:34:34;35.60;;;25.33;;
47309;SDS011;33046;52.270;6.832;2023-04-09T06:36:41;39.50;;;26.58;;
47309;SDS011;33046;52.270;6.832;2023-04-09T06:38:47;35.00;;;26.10;;
47309;SDS011;33046;52.270;6.832;2023-04-09T06:40:54;33.20;;;26.15;;
47309;SDS011;33046;52.270;6.832;2023-04-09T06:43:01;31.38;;;24.70;;
47309;SDS011;33046;52.270;6.832;2023-04-09T06:45:16;34.75;;;25.95;;
47309;SDS011;33046;52.270;6.832;2023-04-09T06:47:23;37.03;;;27.02;;
47309;SDS011;33046;52.270;6.832;2023-04-09T06:49:29;33.80;;;27.38;;
47309;SDS011;33046;52.270;6.832;2023-04-09T06:51:38;37.67;;;26.52;;
47309;SDS011;33046;52.270;6.832;2023-04-09T06:53:44;36.72;;;28.15;;
47309;SDS011;33046;52.270;6.832;2023-04-09T06:55:51;35.40;;;28.38;;
47309;SDS011;33046;52.270;6.832;2023-04-09T06:57:58;34.80;;;28.30;;
47309;SDS011;33046;52.270;6.832;2023-04-09T07:00:06;36.60;;;28.50;;
47309;SDS011;33046;52.270;6.832;2023-04-09T07:02:13;39.28;;;29.00;;
47309;SDS011;33046;52.270;6.832;2023-04-09T07:04:20;32.92;;;27.85;;
47309;SDS011;33046;52.270;6.832;2023-04-09T07:06:27;32.63;;;24.95;;
47309;SDS011;33046;52.270;6.832;2023-04-09T07:08:35;36.60;;;26.50;;
47309;SDS011;33046;52.270;6.832;2023-04-09T07:10:42;34.72;;;27.25;;
47309;SDS011;33046;52.270;6.832;2023-04-09T07:12:48;34.15;;;26.08;;
47309;SDS011;33046;52.270;6.832;2023-04-09T07:14:58;35.38;;;26.80;;
47309;SDS011;33046;52.270;6.832;2023-04-09T07:17:05;36.78;;;27.50;;
47309;SDS011;33046;52.270;6.832;2023-04-09T07:19:12;36.08;;;27.20;;
47309;SDS011;33046;52.270;6.832;2023-04-09T07:21:19;35.08;;;28.15;;
47309;SDS011;33046;52.270;6.832;2023-04-09T07:23:25;35.05;;;27.55;;
47309;SDS011;33046;52.270;6.832;2023-04-09T07:25:34;32.08;;;25.30;;
47309;SDS011;33046;52.270;6.832;2023-04-09T07:27:40;36.67;;;28.85;;
47309;SDS011;33046;52.270;6.832;2023-04-09T07:29:47;35.22;;;27.20;;
47309;SDS011;33046;52.270;6.832;2023-04-09T07:31:54;35.90;;;27.13;;
47309;SDS011;33046;52.270;6.832;2023-04-09T07:34:01;33.45;;;27.08;;
47309;SDS011;33046;52.270;6.832;2023-04-09T07:36:08;35.53;;;28.77;;
47309;SDS011;33046;52.270;6.832;2023-04-09T07:38:15;33.58;;;25.65;;
47309;SDS011;33046;52.270;6.832;2023-04-09T07:40:22;36.17;;;27.05;;
47309;SDS011;33046;52.270;6.832;2023-04-09T07:42:30;32.83;;;26.58;;
47309;SDS011;33046;52.270;6.832;2023-04-09T07:44:36;31.60;;;26.23;;
47309;SDS011;33046;52.270;6.832;2023-04-09T07:46:43;34.40;;;26.85;;
47309;SDS011;33046;52.270;6.832;2023-04-09T07:48:50;33.15;;;25.50;;
47309;SDS011;33046;52.270;6.832;2023-04-09T07:50:57;34.95;;;27.60;;
47309;SDS011;33046;52.270;6.832;2023-04-09T07:53:04;32.05;;;27.40;;
47309;SDS011;33046;52.270;6.832;2023-04-09T07:55:10;34.47;;;27.67;;
47309;SDS011;33046;52.270;6.832;2023-04-09T07:57:17;32.13;;;26.15;;
47309;SDS011;33046;52.270;6.832;2023-04-09T07:59:26;34.28;;;26.73;;
47309;SDS011;33046;52.270;6.832;2023-04-09T08:01:32;32.63;;;27.17;;
47309;SDS011;33046;52.270;6.832;2023-04-09T08:03:39;32.80;;;25.45;;
47309;SDS011;33046;52.270;6.832;2023-04-09T08:05:46;30.38;;;25.05;;
47309;SDS011;33046;52.270;6.832;2023-04-09T08:07:53;32.65;;;26.50;;
47309;SDS011;33046;52.270;6.832;2023-04-09T08:09:59;31.75;;;24.55;;
47309;SDS011;33046;52.270;6.832;2023-04-09T08:12:06;31.52;;;26.30;;
47309;SDS011;33046;52.270;6.832;2023-04-09T08:14:14;31.48;;;25.48;;
47309;SDS011;33046;52.270;6.832;2023-04-09T08:16:23;31.05;;;25.23;;
47309;SDS011;33046;52.270;6.832;2023-04-09T08:18:29;28.02;;;23.15;;
47309;SDS011;33046;52.270;6.832;2023-04-09T08:20:36;32.08;;;25.30;;
47309;SDS011;33046;52.270;6.832;2023-04-09T08:22:43;31.20;;;25.27;;
47309;SDS011;33046;52.270;6.832;2023-04-09T08:24:50;30.55;;;24.85;;
47309;SDS011;33046;52.270;6.832;2023-04-09T08:26:57;28.85;;;24.70;;
47309;SDS011;33046;52.270;6.832;2023-04-09T08:29:03;26.85;;;22.98;;
47309;SDS011;33046;52.270;6.832;2023-04-09T08:31:10;29.10;;;23.70;;
47309;SDS011;33046;52.270;6.832;2023-04-09T08:33:19;31.48;;;23.77;;
47309;SDS011;33046;52.270;6.832;2023-04-09T08:35:25;27.50;;;23.15;;
47309;SDS011;33046;52.270;6.832;2023-04-09T08:37:32;25.73;;;21.60;;
47309;SDS011;33046;52.270;6.832;2023-04-09T08:39:39;28.88;;;23.73;;
47309;SDS011;33046;52.270;6.832;2023-04-09T08:41:46;30.48;;;24.08;;
47309;SDS011;33046;52.270;6.832;2023-04-09T08:43:52;25.73;;;23.00;;
47309;SDS011;33046;52.270;6.832;2023-04-09T08:46:03;25.48;;;21.05;;
47309;SDS011;33046;52.270;6.832;2023-04-09T08:48:10;24.77;;;20.83;;
47309;SDS011;33046;52.270;6.832;2023-04-09T08:50:20;24.35;;;20.05;;
47309;SDS011;33046;52.270;6.832;2023-04-09T08:52:29;24.25;;;20.58;;
47309;SDS011;33046;52.270;6.832;2023-04-09T08:54:37;22.85;;;19.05;;
47309;SDS011;33046;52.270;6.832;2023-04-09T08:56:44;22.92;;;19.88;;
47309;SDS011;33046;52.270;6.832;2023-04-09T08:58:51;23.25;;;19.77;;
47309;SDS011;33046;52.270;6.832;2023-04-09T09:00:59;25.80;;;19.83;;
47309;SDS011;33046;52.270;6.832;2023-04-09T09:03:07;22.40;;;18.75;;
47309;SDS011;33046;52.270;6.832;2023-04-09T09:05:15;20.55;;;18.20;;
47309;SDS011;33046;52.270;6.832;2023-04-09T09:07:23;22.35;;;18.45;;
47309;SDS011;33046;52.270;6.832;2023-04-09T09:09:30;20.65;;;18.05;;
47309;SDS011;33046;52.270;6.832;2023-04-09T09:11:37;25.17;;;18.60;;
47309;SDS011;33046;52.270;6.832;2023-04-09T09:13:45;22.48;;;18.48;;
47309;SDS011;33046;52.270;6.832;2023-04-09T09:16:10;19.50;;;17.30;;
47309;SDS011;33046;52.270;6.832;2023-04-09T09:18:18;21.02;;;17.67;;
47309;SDS011;33046;52.270;6.832;2023-04-09T09:20:25;21.02;;;18.60;;
47309;SDS011;33046;52.270;6.832;2023-04-09T09:22:46;22.42;;;18.63;;
47309;SDS011;33046;52.270;6.832;2023-04-09T09:24:54;19.00;;;16.92;;
47309;SDS011;33046;52.270;6.832;2023-04-09T09:27:01;20.10;;;17.38;;
47309;SDS011;33046;52.270;6.832;2023-04-09T09:29:07;19.60;;;16.80;;
47309;SDS011;33046;52.270;6.832;2023-04-09T09:31:15;21.13;;;17.15;;
47309;SDS011;33046;52.270;6.832;2023-04-09T09:33:23;19.58;;;16.38;;
47309;SDS011;33046;52.270;6.832;2023-04-09T09:35:45;19.73;;;16.58;;
47309;SDS011;33046;52.270;6.832;2023-04-09T09:38:03;19.48;;;17.38;;
47309;SDS011;33046;52.270;6.832;2023-04-09T09:40:10;19.70;;;16.80;;
47309;SDS011;33046;52.270;6.832;2023-04-09T09:42:32;18.50;;;15.27;;
47309;SDS011;33046;52.270;6.832;2023-04-09T09:44:39;17.45;;;15.55;;
47309;SDS011;33046;52.270;6.832;2023-04-09T09:46:45;18.48;;;16.25;;
47309;SDS011;33046;52.270;6.832;2023-04-09T09:48:52;20.55;;;13.70;;
47309;SDS011;33046;52.270;6.832;2023-04-09T09:50:59;19.20;;;13.38;;
47309;SDS011;33046;52.270;6.832;2023-04-09T09:53:14;12.77;;;11.32;;
47309;SDS011;33046;52.270;6.832;2023-04-09T09:55:28;11.57;;;10.45;;
47309;SDS011;33046;52.270;6.832;2023-04-09T09:57:37;10.85;;;9.60;;
47309;SDS011;33046;52.270;6.832;2023-04-09T09:59:49;12.25;;;10.68;;
47309;SDS011;33046;52.270;6.832;2023-04-09T10:01:59;13.43;;;10.83;;
47309;SDS011;33046;52.270;6.832;2023-04-09T10:04:11;12.23;;;10.13;;
47309;SDS011;33046;52.270;6.832;2023-04-09T10:06:20;11.38;;;9.73;;
47309;SDS011;33046;52.270;6.832;2023-04-09T10:08:29;12.40;;;10.48;;
47309;SDS011;33046;52.270;6.832;2023-04-09T10:10:37;11.63;;;10.27;;
47309;SDS011;33046;52.270;6.832;2023-04-09T10:12:45;12.75;;;11.05;;
47309;SDS011;33046;52.270;6.832;2023-04-09T10:14:52;13.35;;;12.02;;
47309;SDS011;33046;52.270;6.832;2023-04-09T10:17:01;12.00;;;10.82;;
47309;SDS011;33046;52.270;6.832;2023-04-09T10:19:08;11.27;;;10.10;;
47309;SDS011;33046;52.270;6.832;2023-04-09T10:21:16;12.80;;;9.35;;
47309;SDS011;33046;52.270;6.832;2023-04-09T10:23:31;8.65;;;7.75;;
47309;SDS011;33046;52.270;6.832;2023-04-09T10:25:42;10.27;;;9.23;;
47309;SDS011;33046;52.270;6.832;2023-04-09T10:27:58;9.73;;;8.50;;
47309;SDS011;33046;52.270;6.832;2023-04-09T10:30:05;9.88;;;8.68;;
47309;SDS011;33046;52.270;6.832;2023-04-09T10:32:16;9.02;;;8.13;;
47309;SDS011;33046;52.270;6.832;2023-04-09T10:34:26;10.18;;;9.13;;
47309;SDS011;33046;52.270;6.832;2023-04-09T10:36:32;9.52;;;8.60;;
47309;SDS011;33046;52.270;6.832;2023-04-09T10:38:44;9.75;;;8.75;;
47309;SDS011;33046;52.270;6.832;2023-04-09T10:40:51;9.88;;;8.88;;
47309;SDS011;33046;52.270;6.832;2023-04-09T10:42:58;9.75;;;8.55;;
47309;SDS011;33046;52.270;6.832;2023-04-09T10:45:06;8.90;;;8.05;;
47309;SDS011;33046;52.270;6.832;2023-04-09T10:47:14;10.38;;;9.27;;
47309;SDS011;33046;52.270;6.832;2023-04-09T10:49:37;9.20;;;8.18;;
47309;SDS011;33046;52.270;6.832;2023-04-09T10:51:51;8.13;;;7.32;;
47309;SDS011;33046;52.270;6.832;2023-04-09T10:54:01;8.30;;;7.50;;
47309;SDS011;33046;52.270;6.832;2023-04-09T10:56:13;7.72;;;6.95;;
47309;SDS011;33046;52.270;6.832;2023-04-09T10:58:20;6.93;;;6.10;;
47309;SDS011;33046;52.270;6.832;2023-04-09T11:00:27;7.07;;;6.38;;
47309;SDS011;33046;52.270;6.832;2023-04-09T11:05:20;8.38;;;7.20;;
47309;SDS011;33046;52.270;6.832;2023-04-09T11:07:31;7.93;;;6.72;;
47309;SDS011;33046;52.270;6.832;2023-04-09T11:09:42;7.82;;;7.03;;
47309;SDS011;33046;52.270;6.832;2023-04-09T11:11:50;6.78;;;6.07;;
47309;SDS011;33046;52.270;6.832;2023-04-09T11:13:58;7.88;;;6.22;;
47309;SDS011;33046;52.270;6.832;2023-04-09T11:16:05;7.95;;;7.03;;
47309;SDS011;33046;52.270;6.832;2023-04-09T11:18:18;7.90;;;6.88;;
47309;SDS011;33046;52.270;6.832;2023-04-09T11:20:25;8.20;;;6.38;;
47309;SDS011;33046;52.270;6.832;2023-04-09T11:22:32;8.95;;;6.60;;
47309;SDS011;33046;52.270;6.832;2023-04-09T11:24:39;7.45;;;6.70;;
47309;SDS011;33046;52.270;6.832;2023-04-09T11:26:48;7.28;;;6.57;;
47309;SDS011;33046;52.270;6.832;2023-04-09T11:28:55;7.90;;;7.10;;
47309;SDS011;33046;52.270;6.832;2023-04-09T11:31:03;7.38;;;6.60;;
47309;SDS011;33046;52.270;6.832;2023-04-09T11:33:10;7.03;;;6.30;;
47309;SDS011;33046;52.270;6.832;2023-04-09T11:35:17;7.72;;;6.45;;
47309;SDS011;33046;52.270;6.832;2023-04-09T11:37:25;8.50;;;7.22;;
47309;SDS011;33046;52.270;6.832;2023-04-09T11:39:34;8.45;;;6.88;;
47309;SDS011;33046;52.270;6.832;2023-04-09T11:41:42;9.55;;;7.63;;
47309;SDS011;33046;52.270;6.832;2023-04-09T11:43:51;8.98;;;7.85;;
47309;SDS011;33046;52.270;6.832;2023-04-09T11:45:58;8.68;;;7.88;;
47309;SDS011;33046;52.270;6.832;2023-04-09T11:48:05;9.38;;;8.43;;
47309;SDS011;33046;52.270;6.832;2023-04-09T11:50:13;8.15;;;7.35;;
47309;SDS011;33046;52.270;6.832;2023-04-09T11:52:20;10.60;;;8.55;;
47309;SDS011;33046;52.270;6.832;2023-04-09T11:54:30;9.57;;;8.57;;
47309;SDS011;33046;52.270;6.832;2023-04-09T11:56:37;9.18;;;7.50;;
47309;SDS011;33046;52.270;6.832;2023-04-09T11:58:44;7.72;;;6.93;;
47309;SDS011;33046;52.270;6.832;2023-04-09T12:00:53;7.50;;;6.80;;
47309;SDS011;33046;52.270;6.832;2023-04-09T12:03:00;8.05;;;7.25;;
47309;SDS011;33046;52.270;6.832;2023-04-09T12:05:09;8.52;;;7.63;;
47309;SDS011;33046;52.270;6.832;2023-04-09T12:07:17;8.50;;;7.53;;
47309;SDS011;33046;52.270;6.832;2023-04-09T12:09:24;8.15;;;7.35;;
47309;SDS011;33046;52.270;6.832;2023-04-09T12:11:30;8.30;;;7.35;;
47309;SDS011;33046;52.270;6.832;2023-04-09T12:13:37;9.32;;;7.97;;
47309;SDS011;33046;52.270;6.832;2023-04-09T12:15:44;8.32;;;7.35;;
47309;SDS011;33046;52.270;6.832;2023-04-09T12:17:56;8.65;;;7.82;;
47309;SDS011;33046;52.270;6.832;2023-04-09T12:20:04;8.15;;;7.35;;
47309;SDS011;33046;52.270;6.832;2023-04-09T12:22:11;8.60;;;7.78;;
47309;SDS011;33046;52.270;6.832;2023-04-09T12:24:18;10.02;;;8.32;;
47309;SDS011;33046;52.270;6.832;2023-04-09T12:26:26;8.48;;;7.68;;
47309;SDS011;33046;52.270;6.832;2023-04-09T12:28:33;9.55;;;8.55;;
47309;SDS011;33046;52.270;6.832;2023-04-09T12:30:40;8.68;;;7.15;;
47309;SDS011;33046;52.270;6.832;2023-04-09T12:32:47;8.00;;;7.20;;
47309;SDS011;33046;52.270;6.832;2023-04-09T12:34:55;9.25;;;8.35;;
47309;SDS011;33046;52.270;6.832;2023-04-09T12:37:02;8.43;;;7.47;;
47309;SDS011;33046;52.270;6.832;2023-04-09T12:39:09;9.73;;;7.65;;
47309;SDS011;33046;52.270;6.832;2023-04-09T12:41:16;7.63;;;6.88;;